Time;durP1;ratioP1;P1;durP2;ratioP2;P2;SDS_P1;SDS_P2;PMS_P1;PMS_P2;Temp;Humidity;BMP_temperature;BMP_pressure;BME280_temperature;BME280_humidity;BME280_pressure;Samples;Min_cycle;Max_cycle;Signal;HPM_P1;HPM_P2
2021/04/22 00:02:22;;;;;;;14.23;4.10;;;7.80;84.00;;;;;;6184632;23;20020;-87
2021/04/22 00:04:47;;;;;;;17.45;4.65;;;7.80;84.10;;;;;;6186211;23;20017;-87
2021/04/22 00:07:35;;;;;;;14.60;4.20;;;7.80;84.00;;;;;;6186084;23;20066;-88
2021/04/22 00:10:08;;;;;;;11.43;4.22;;;7.80;84.10;;;;;;6184272;23;20319;-89
2021/04/22 00:12:38;;;;;;;12.80;3.90;;;7.80;84.50;;;;;;6185982;23;20024;-88
2021/04/22 00:15:20;;;;;;;15.27;4.00;;;7.70;84.60;;;;;;6184731;23;20024;-88
2021/04/22 00:17:47;;;;;;;12.55;3.83;;;7.70;84.20;;;;;;6185167;23;20017;-87
2021/04/22 00:20:26;;;;;;;13.15;4.07;;;7.70;84.30;;;;;;6185848;23;20016;-88
2021/04/22 00:22:52;;;;;;;12.60;4.10;;;7.70;84.20;;;;;;6159384;23;20337;-87
2021/04/22 00:25:26;;;;;;;15.85;4.18;;;7.70;84.20;;;;;;6184503;23;20017;-88
2021/04/22 00:27:53;;;;;;;12.95;3.80;;;7.70;84.00;;;;;;6185650;23;20017;-87
2021/04/22 00:30:23;;;;;;;18.45;3.63;;;7.70;84.30;;;;;;6184386;23;20020;-87
2021/04/22 00:32:49;;;;;;;13.75;3.95;;;7.70;83.10;;;;;;6184522;23;20475;-88
2021/04/22 00:35:22;;;;;;;12.25;4.00;;;7.70;83.60;;;;;;6185200;23;20389;-87
2021/04/22 00:37:51;;;;;;;11.85;3.35;;;7.70;85.00;;;;;;6184221;23;20484;-87
2021/04/22 00:42:50;;;;;;;14.95;3.53;;;7.70;83.60;;;;;;6155157;23;20029;-88
2021/04/22 00:45:22;;;;;;;14.70;3.13;;;7.60;83.00;;;;;;6154324;23;20032;-87
2021/04/22 00:47:48;;;;;;;12.40;3.00;;;7.70;82.90;;;;;;6155797;23;20075;-87
2021/04/22 00:50:30;;;;;;;12.93;3.13;;;7.60;82.50;;;;;;6155547;23;20450;-88
2021/04/22 00:52:57;;;;;;;10.25;3.15;;;7.60;82.10;;;;;;6154639;23;20025;-87
2021/04/22 00:55:27;;;;;;;10.57;2.92;;;7.60;82.50;;;;;;6155207;23;20421;-88
2021/04/22 00:57:53;;;;;;;14.68;3.65;;;7.50;82.70;;;;;;6129352;23;20113;-87
2021/04/22 01:00:29;;;;;;;13.98;3.15;;;7.50;82.20;;;;;;6154248;23;20018;-88
2021/04/22 01:02:56;;;;;;;13.93;3.20;;;7.50;82.20;;;;;;6155407;23;20084;-87
2021/04/22 01:05:29;;;;;;;14.10;3.28;;;7.50;81.90;;;;;;6154888;23;20018;-88
2021/04/22 01:07:55;;;;;;;12.43;2.65;;;7.50;82.40;;;;;;6154833;23;20014;-88
2021/04/22 01:10:22;;;;;;;12.18;2.83;;;7.50;81.80;;;;;;6155536;23;20076;-87
2021/04/22 01:12:48;;;;;;;13.85;3.10;;;7.50;82.20;;;;;;6154861;23;20018;-88
2021/04/22 01:15:23;;;;;;;13.48;2.83;;;7.50;82.40;;;;;;6155132;23;20017;-87
2021/04/22 01:17:49;;;;;;;13.15;3.35;;;7.50;82.80;;;;;;6154078;23;20017;-88
2021/04/22 01:20:30;;;;;;;12.27;3.03;;;7.50;82.60;;;;;;6154236;23;20018;-88
2021/04/22 01:23:00;;;;;;;16.02;2.95;;;7.50;83.00;;;;;;6155768;23;20028;-87
2021/04/22 01:25:41;;;;;;;13.63;2.78;;;7.50;82.30;;;;;;6155231;23;20018;-87
2021/04/22 01:28:10;;;;;;;15.73;3.08;;;7.40;82.40;;;;;;6154807;23;20021;-86
2021/04/22 01:30:39;;;;;;;14.15;2.42;;;7.50;83.10;;;;;;6155722;23;20025;-88
2021/04/22 01:33:06;;;;;;;16.23;2.65;;;7.40;82.50;;;;;;6155194;23;20017;-88
2021/04/22 01:35:35;;;;;;;13.20;2.63;;;7.50;81.90;;;;;;6153913;23;20018;-88
2021/04/22 01:38:01;;;;;;;11.10;2.78;;;7.40;81.70;;;;;;6155366;23;20021;-88
2021/04/22 01:40:28;;;;;;;13.00;2.45;;;7.40;82.50;;;;;;6155243;23;20072;-87
2021/04/22 01:42:54;;;;;;;12.73;2.92;;;7.50;82.60;;;;;;6154061;23;20454;-87
2021/04/22 01:45:21;;;;;;;10.98;2.33;;;7.50;83.00;;;;;;6155087;23;20029;-87
2021/04/22 01:47:47;;;;;;;11.15;2.70;;;7.50;82.80;;;;;;6155721;23;20093;-88
2021/04/22 01:50:19;;;;;;;9.35;2.45;;;7.50;82.80;;;;;;6154853;23;20018;-87
2021/04/22 01:52:45;;;;;;;9.10;2.58;;;7.50;82.90;;;;;;6154944;23;20021;-87
2021/04/22 01:55:15;;;;;;;12.52;2.42;;;7.50;83.00;;;;;;6154020;23;20539;-87
2021/04/22 01:57:42;;;;;;;13.63;2.30;;;7.50;82.70;;;;;;6155219;23;20074;-88
2021/04/22 02:00:15;;;;;;;11.48;2.40;;;7.40;81.90;;;;;;6154820;23;20044;-87
2021/04/22 02:02:41;;;;;;;12.23;2.38;;;7.40;81.90;;;;;;6154748;23;20021;-87
2021/04/22 02:05:11;;;;;;;9.35;2.22;;;7.40;82.20;;;;;;6155088;23;20291;-87
2021/04/22 02:07:37;;;;;;;13.85;2.30;;;7.40;82.80;;;;;;6155096;23;20447;-87
2021/04/22 02:10:05;;;;;;;11.25;2.55;;;7.40;82.30;;;;;;6154138;23;20044;-87
2021/04/22 02:12:31;;;;;;;11.93;3.00;;;7.40;81.90;;;;;;6156191;23;20389;-87
2021/04/22 02:14:58;;;;;;;9.55;2.20;;;7.40;81.50;;;;;;6157316;23;20040;-88
2021/04/22 02:17:24;;;;;;;10.38;2.40;;;7.40;81.00;;;;;;6155303;23;20518;-87
2021/04/22 02:19:50;;;;;;;7.30;2.13;;;7.30;81.20;;;;;;6156980;23;20048;-87
2021/04/22 02:22:16;;;;;;;8.88;2.55;;;7.30;81.80;;;;;;6156689;23;20045;-87
2021/04/22 02:24:45;;;;;;;9.95;2.17;;;7.40;81.90;;;;;;6156244;23;20382;-87
2021/04/22 02:27:11;;;;;;;10.00;2.25;;;7.30;82.40;;;;;;6157135;23;20041;-87
2021/04/22 02:29:37;;;;;;;14.02;2.28;;;7.40;82.40;;;;;;6157304;23;20461;-87
2021/04/22 02:32:06;;;;;;;10.70;2.63;;;7.40;82.50;;;;;;6155796;23;20072;-87
2021/04/22 02:34:32;;;;;;;9.25;2.15;;;7.40;82.90;;;;;;6156437;23;20450;-87
2021/04/22 02:37:07;;;;;;;13.75;2.80;;;7.30;83.30;;;;;;6155794;23;20020;-87
2021/04/22 02:39:47;;;;;;;10.43;2.15;;;7.40;82.60;;;;;;6156117;23;20091;-88
2021/04/22 02:42:13;;;;;;;10.90;2.38;;;7.30;82.80;;;;;;6156198;23;20354;-88
2021/04/22 02:44:40;;;;;;;10.60;2.40;;;7.40;82.60;;;;;;6155942;23;20025;-88
2021/04/22 02:47:05;;;;;;;10.75;2.17;;;7.30;82.70;;;;;;6156846;23;20024;-86
2021/04/22 02:49:33;;;;;;;14.68;2.20;;;7.40;82.90;;;;;;6150525;23;20033;-87
2021/04/22 02:51:59;;;;;;;13.80;2.35;;;7.30;82.90;;;;;;6155816;23;20323;-87
2021/04/22 02:54:25;;;;;;;11.57;2.42;;;7.30;82.90;;;;;;6156282;23;20073;-87
2021/04/22 02:56:50;;;;;;;7.38;1.92;;;7.30;83.00;;;;;;6156460;23;20458;-87
2021/04/22 02:59:18;;;;;;;9.45;2.40;;;7.40;83.10;;;;;;6155223;23;20021;-87
2021/04/22 03:01:50;;;;;;;10.65;2.13;;;7.30;82.90;;;;;;6156792;23;20080;-88
2021/04/22 03:04:19;;;;;;;12.82;2.30;;;7.30;83.30;;;;;;6154951;23;20064;-87
2021/04/22 03:06:54;;;;;;;11.35;2.42;;;7.30;82.90;;;;;;6155019;23;20501;-87
2021/04/22 03:09:25;;;;;;;13.65;2.63;;;7.30;82.90;;;;;;6156593;23;20017;-88
2021/04/22 03:11:52;;;;;;;10.43;2.10;;;7.40;82.80;;;;;;6156573;23;20026;-87
2021/04/22 03:14:21;;;;;;;9.90;2.17;;;7.30;82.50;;;;;;6155091;23;20338;-85
2021/04/22 03:16:50;;;;;;;8.52;2.22;;;7.30;82.20;;;;;;6156800;23;20022;-87
2021/04/22 03:19:19;;;;;;;12.57;2.33;;;7.30;82.30;;;;;;6156125;23;20052;-88
2021/04/22 03:21:47;;;;;;;12.38;1.98;;;7.30;82.00;;;;;;6156360;23;20048;-87
2021/04/22 03:24:22;;;;;;;10.43;2.03;;;7.30;81.40;;;;;;6155840;23;20028;-87
2021/04/22 03:26:51;;;;;;;9.50;2.17;;;7.20;81.40;;;;;;6155843;23;20064;-87
2021/04/22 03:29:25;;;;;;;10.85;2.30;;;7.30;81.90;;;;;;6156475;23;20022;-87
2021/04/22 03:31:51;;;;;;;9.90;2.00;;;7.20;82.20;;;;;;6156889;23;20017;-87
2021/04/22 03:34:23;;;;;;;8.57;2.30;;;7.20;82.60;;;;;;6154996;23;20458;-87
2021/04/22 03:36:54;;;;;;;11.27;2.38;;;7.20;82.40;;;;;;6156100;23;20461;-87
2021/04/22 03:39:23;;;;;;;7.05;1.80;;;7.20;82.70;;;;;;6156240;23;20017;-87
2021/04/22 03:41:49;;;;;;;12.10;2.42;;;7.20;82.70;;;;;;6154670;23;20026;-88
2021/04/22 03:44:20;;;;;;;7.70;1.92;;;7.30;82.40;;;;;;6155755;23;20022;-88
2021/04/22 03:46:49;;;;;;;12.43;2.35;;;7.30;82.70;;;;;;6155394;23;20021;-88
2021/04/22 03:49:21;;;;;;;12.18;2.35;;;7.30;83.20;;;;;;6154933;23;20434;-87
2021/04/22 03:51:53;;;;;;;11.57;2.38;;;7.20;82.90;;;;;;6156477;23;20067;-87
2021/04/22 03:54:22;;;;;;;12.13;2.40;;;7.20;82.60;;;;;;6156070;23;20029;-87
2021/04/22 03:56:50;;;;;;;9.80;2.05;;;7.20;81.60;;;;;;6154412;23;20013;-86
2021/04/22 03:59:20;;;;;;;8.20;2.15;;;7.20;82.40;;;;;;6156057;23;20018;-87
2021/04/22 04:01:49;;;;;;;10.75;2.25;;;7.20;82.70;;;;;;6155469;23;20421;-87
2021/04/22 04:04:29;;;;;;;11.65;2.45;;;7.20;83.00;;;;;;6155594;23;20019;-86
2021/04/22 04:07:08;;;;;;;8.27;2.00;;;7.20;83.20;;;;;;6155104;23;20068;-87
2021/04/22 04:09:51;;;;;;;11.27;2.30;;;7.20;83.20;;;;;;6154595;23;20410;-87
2021/04/22 04:12:19;;;;;;;13.47;2.33;;;7.30;83.70;;;;;;6155868;23;20014;-87
2021/04/22 04:14:51;;;;;;;10.52;2.20;;;7.30;84.10;;;;;;6156146;23;20263;-87
2021/04/22 04:17:29;;;;;;;11.98;2.15;;;7.20;83.90;;;;;;6154958;23;20017;-88
2021/04/22 04:19:57;;;;;;;9.38;2.05;;;7.20;83.90;;;;;;6155767;23;20018;-86
2021/04/22 04:22:22;;;;;;;9.63;2.28;;;7.20;83.90;;;;;;6155677;23;20434;-87
2021/04/22 04:24:54;;;;;;;8.48;2.20;;;7.20;84.00;;;;;;6154391;23;20029;-88
2021/04/22 04:34:51;;;;;;;9.73;2.30;;;7.20;83.90;;;;;;6155401;23;20115;-86
2021/04/22 04:37:28;;;;;;;10.88;2.20;;;7.20;83.20;;;;;;6154688;23;20557;-88
2021/04/22 04:39:53;;;;;;;13.23;2.47;;;7.20;84.20;;;;;;6156025;23;20076;-88
2021/04/22 04:42:33;;;;;;;9.82;2.22;;;7.20;83.00;;;;;;6154841;23;20021;-88
2021/04/22 04:45:10;;;;;;;13.82;2.20;;;7.20;82.70;;;;;;6153635;23;20450;-86
2021/04/22 04:48:03;;;;;;;10.77;2.42;;;7.10;82.90;;;;;;6155274;23;20010;-88
2021/04/22 04:50:48;;;;;;;13.63;2.35;;;7.20;82.20;;;;;;6151290;23;20975;-85
2021/04/22 04:53:16;;;;;;;12.93;2.40;;;7.10;82.00;;;;;;6125515;23;20474;-85
2021/04/22 04:59:18;;;;;;;17.00;2.63;;;7.10;81.90;;;;;;6089973;23;20324;-88
2021/04/22 05:01:47;;;;;;;13.07;2.80;;;7.10;81.30;;;;;;6155230;23;20021;-86
2021/04/22 05:04:13;;;;;;;10.27;2.63;;;7.10;81.30;;;;;;6155269;23;20060;-87
2021/04/22 05:06:59;;;;;;;10.73;2.58;;;7.10;81.30;;;;;;6155155;23;20017;-88
2021/04/22 05:09:25;;;;;;;10.73;2.33;;;7.00;81.10;;;;;;6154855;23;20462;-87
2021/04/22 05:11:51;;;;;;;11.35;2.25;;;7.10;81.30;;;;;;6151338;23;20032;-87
2021/04/22 05:14:25;;;;;;;15.38;2.70;;;7.00;81.10;;;;;;6152209;23;20022;-87
2021/04/22 05:16:51;;;;;;;15.50;3.10;;;7.00;80.60;;;;;;6154503;23;20044;-88
2021/04/22 05:19:32;;;;;;;13.70;2.92;;;7.00;80.00;;;;;;6152904;23;20399;-86
2021/04/22 05:21:57;;;;;;;12.43;2.80;;;7.00;79.70;;;;;;6155262;23;20045;-88
2021/04/22 05:24:23;;;;;;;11.77;2.78;;;7.00;80.80;;;;;;6153484;23;20021;-87
2021/04/22 05:26:49;;;;;;;15.13;2.47;;;7.00;79.80;;;;;;6154004;23;20021;-90
2021/04/22 05:29:23;;;;;;;12.05;2.33;;;7.10;79.60;;;;;;6153879;23;20017;-87
2021/04/22 05:31:50;;;;;;;13.88;2.80;;;7.10;78.70;;;;;;6156184;23;20028;-86
2021/04/22 05:34:22;;;;;;;14.18;2.42;;;7.00;78.80;;;;;;6154466;23;20022;-84
2021/04/22 05:36:47;;;;;;;17.17;2.50;;;7.10;79.90;;;;;;6154112;23;20450;-86
2021/04/22 05:39:31;;;;;;;12.38;2.17;;;7.10;79.10;;;;;;6153631;23;20032;-84
2021/04/22 05:41:58;;;;;;;16.25;2.75;;;7.10;78.30;;;;;;6153257;23;20088;-87
2021/04/22 05:44:33;;;;;;;14.32;2.80;;;7.10;78.80;;;;;;6153610;23;20454;-87
2021/04/22 05:47:00;;;;;;;10.90;2.30;;;7.10;78.90;;;;;;6156519;23;20017;-88
2021/04/22 05:49:32;;;;;;;16.80;2.70;;;7.10;79.20;;;;;;6157470;23;20081;-88
2021/04/22 05:51:58;;;;;;;10.20;2.50;;;7.10;79.00;;;;;;6146923;23;20028;-88
2021/04/22 05:54:23;;;;;;;9.52;2.42;;;7.10;78.40;;;;;;6155484;23;20403;-89
2021/04/22 05:56:49;;;;;;;17.13;2.83;;;7.10;78.40;;;;;;6156992;23;20014;-91
2021/04/22 05:59:18;;;;;;;13.15;2.50;;;7.20;78.20;;;;;;6157040;23;20346;-89
2021/04/22 06:01:47;;;;;;;11.80;3.17;;;7.20;77.90;;;;;;6156893;23;20014;-89
2021/04/22 06:04:21;;;;;;;16.13;2.83;;;7.20;78.30;;;;;;6158179;23;20074;-88
2021/04/22 06:06:53;;;;;;;13.38;2.60;;;7.20;78.40;;;;;;6159592;23;20021;-90
2021/04/22 06:09:22;;;;;;;15.07;2.80;;;7.20;79.10;;;;;;6154930;23;20017;-88
2021/04/22 06:11:53;;;;;;;16.63;2.67;;;7.20;79.20;;;;;;6157068;23;20401;-86
2021/04/22 06:14:44;;;;;;;14.38;3.00;;;7.20;77.90;;;;;;6156422;23;20021;-89
2021/04/22 06:17:16;;;;;;;14.50;2.80;;;7.20;77.60;;;;;;6152079;23;20076;-89
2021/04/22 06:19:42;;;;;;;13.88;2.72;;;7.30;76.90;;;;;;6157510;23;20049;-87
2021/04/22 06:22:19;;;;;;;16.30;3.28;;;7.30;76.90;;;;;;6157459;23;20013;-91
2021/04/22 06:25:04;;;;;;;13.88;2.60;;;7.30;76.60;;;;;;6166658;23;20017;-85
2021/04/22 06:27:50;;;;;;;10.82;2.60;;;7.30;76.90;;;;;;6156672;23;20096;-87
2021/04/22 06:30:16;;;;;;;13.57;2.63;;;7.40;77.70;;;;;;6155459;23;20096;-86
2021/04/22 06:32:42;;;;;;;12.77;2.70;;;7.30;77.40;;;;;;6156293;23;20558;-82
2021/04/22 06:35:10;;;;;;;12.52;2.60;;;7.40;77.70;;;;;;6156812;23;20112;-86
2021/04/22 06:37:36;;;;;;;16.58;3.05;;;7.40;78.00;;;;;;6155731;23;20057;-86
2021/04/22 06:40:09;;;;;;;12.07;2.95;;;7.40;78.10;;;;;;6155616;23;20316;-86
2021/04/22 06:42:38;;;;;;;13.18;2.80;;;7.40;77.70;;;;;;6156538;23;20077;-87
2021/04/22 06:45:06;;;;;;;9.20;2.42;;;7.50;76.80;;;;;;6155653;23;20026;-85
2021/04/22 06:47:32;;;;;;;18.10;3.25;;;7.50;77.10;;;;;;6156392;23;20111;-87
2021/04/22 06:49:58;;;;;;;19.35;2.97;;;7.50;76.90;;;;;;6156954;23;20052;-88
2021/04/22 06:52:24;;;;;;;17.52;3.20;;;7.50;75.60;;;;;;6155062;23;20056;-86
2021/04/22 06:54:50;;;;;;;18.02;3.20;;;7.50;76.30;;;;;;6156004;23;20067;-86
2021/04/22 06:57:16;;;;;;;12.77;2.80;;;7.50;75.60;;;;;;6155502;23;20092;-85
2021/04/22 06:59:42;;;;;;;14.70;2.80;;;7.50;76.50;;;;;;6155481;23;20450;-87
2021/04/22 07:02:15;;;;;;;16.90;3.28;;;7.50;76.10;;;;;;6154208;23;20104;-85
2021/04/22 07:04:44;;;;;;;11.63;3.05;;;7.60;75.80;;;;;;6154528;23;20525;-87
2021/04/22 07:07:43;;;;;;;12.68;2.60;;;7.60;76.30;;;;;;6156550;23;20017;-87
2021/04/22 07:10:28;;;;;;;16.38;2.75;;;7.60;75.30;;;;;;6134536;23;20073;-88
2021/04/22 07:12:54;;;;;;;12.30;2.47;;;7.70;75.10;;;;;;6155694;23;20014;-89
2021/04/22 07:15:24;;;;;;;16.98;2.80;;;7.70;75.20;;;;;;6141782;23;20017;-89
2021/04/22 07:17:50;;;;;;;13.23;2.78;;;7.70;75.30;;;;;;6155788;23;20020;-90
2021/04/22 07:20:54;;;;;;;14.55;2.53;;;7.80;75.00;;;;;;6126249;23;20525;-90
2021/04/22 07:23:40;;;;;;;10.43;2.35;;;7.80;74.00;;;;;;6132088;23;20021;-89
2021/04/22 07:26:26;;;;;;;14.00;2.53;;;7.80;73.70;;;;;;6097078;23;20025;-88
2021/04/22 07:28:53;;;;;;;18.35;3.00;;;7.80;74.00;;;;;;6156503;23;20088;-90
2021/04/22 07:31:19;;;;;;;11.18;2.47;;;7.90;74.30;;;;;;6156014;23;20028;-89
2021/04/22 07:33:50;;;;;;;13.35;2.67;;;7.90;74.30;;;;;;6155890;23;20334;-89
2021/04/22 07:36:25;;;;;;;12.45;2.58;;;7.90;74.90;;;;;;6155732;23;20018;-89
2021/04/22 07:38:51;;;;;;;12.73;2.67;;;8.00;75.60;;;;;;6147809;23;21189;-89
2021/04/22 07:41:23;;;;;;;10.20;2.53;;;8.00;75.80;;;;;;6154364;23;20018;-88
2021/04/22 07:43:49;;;;;;;13.35;2.40;;;8.00;75.50;;;;;;6156440;23;20089;-88
2021/04/22 07:46:20;;;;;;;12.68;2.55;;;8.00;75.50;;;;;;6155993;23;20057;-91
2021/04/22 07:48:49;;;;;;;15.55;2.60;;;8.00;75.40;;;;;;6155577;23;20052;-87
2021/04/22 07:51:20;;;;;;;15.75;2.58;;;8.00;75.10;;;;;;6155862;23;20084;-89
2021/04/22 07:57:41;;;;;;;9.13;2.55;;;8.10;72.40;;;;;;6010019;23;20038;-89
2021/04/22 08:00:15;;;;;;;14.48;2.67;;;8.20;74.30;;;;;;6133321;23;20100;-88
2021/04/22 08:02:43;;;;;;;9.57;2.30;;;8.10;73.90;;;;;;6152177;23;20024;-88
2021/04/22 08:05:13;;;;;;;12.23;2.50;;;8.20;74.40;;;;;;6153080;23;20041;-87
2021/04/22 08:07:39;;;;;;;11.02;2.50;;;8.20;73.90;;;;;;6155401;23;20072;-87
2021/04/22 08:10:16;;;;;;;9.63;2.40;;;8.30;73.30;;;;;;6156372;23;20093;-88
2021/04/22 08:12:42;;;;;;;9.93;2.30;;;8.30;73.00;;;;;;6154963;23;20347;-86
2021/04/22 08:15:10;;;;;;;11.65;2.60;;;8.30;72.80;;;;;;6127526;23;20018;-86
2021/04/22 08:17:37;;;;;;;11.73;2.60;;;8.40;72.40;;;;;;6156082;23;20045;-89
2021/04/22 08:23:32;;;;;;;18.55;2.53;;;8.50;73.10;;;;;;6029497;23;20548;-85
2021/04/22 08:26:27;;;;;;;8.55;2.17;;;8.50;73.30;;;;;;6150590;23;20036;-85
2021/04/22 08:28:57;;;;;;;12.48;2.63;;;8.50;73.70;;;;;;6154939;23;20041;-89
2021/04/22 08:31:35;;;;;;;10.80;2.40;;;8.50;73.90;;;;;;6156045;23;20021;-91
2021/04/22 08:34:16;;;;;;;11.38;2.72;;;8.50;74.70;;;;;;6155610;23;20021;-86
2021/04/22 08:36:59;;;;;;;12.10;2.67;;;8.60;75.80;;;;;;6154622;23;20076;-88
2021/04/22 08:39:31;;;;;;;;;;;8.60;75.50;;;;;;6155068;23;20025;-86
2021/04/22 08:41:57;;;;;;;11.82;2.63;;;8.50;73.80;;;;;;6155432;23;19917;-88
2021/04/22 08:44:23;;;;;;;14.27;2.60;;;8.50;76.00;;;;;;6154857;23;20084;-86
2021/04/22 08:46:53;;;;;;;11.25;2.42;;;8.60;75.70;;;;;;6155687;23;20060;-84
2021/04/22 08:49:19;;;;;;;10.40;2.03;;;8.70;75.10;;;;;;6155366;23;20047;-86
2021/04/22 08:52:20;;;;;;;8.75;2.00;;;8.70;73.60;;;;;;6154328;23;20342;-84
2021/04/22 08:54:46;;;;;;;10.63;2.30;;;8.80;69.70;;;;;;6154342;23;20089;-85
2021/04/22 08:57:11;;;;;;;8.15;2.03;;;8.80;70.80;;;;;;6151062;23;20061;-84
2021/04/22 08:59:43;;;;;;;11.85;2.53;;;8.90;72.70;;;;;;6155020;23;20021;-85
2021/04/22 09:02:24;;;;;;;11.88;2.40;;;8.90;72.70;;;;;;6155083;23;20132;-83
2021/04/22 09:04:50;;;;;;;16.05;2.70;;;8.90;72.40;;;;;;6154555;23;20022;-83
2021/04/22 09:07:16;;;;;;;12.27;2.65;;;9.00;72.90;;;;;;6154906;23;20020;-83
2021/04/22 09:09:43;;;;;;;11.38;2.28;;;9.00;72.50;;;;;;6155972;23;20450;-88
2021/04/22 09:12:20;;;;;;;13.23;2.05;;;9.00;72.20;;;;;;6153794;23;20021;-85
2021/04/22 09:15:01;;;;;;;10.38;2.38;;;9.00;72.00;;;;;;6155488;23;20022;-87
2021/04/22 09:17:30;;;;;;;12.20;2.33;;;9.10;71.90;;;;;;6154998;23;20020;-86
2021/04/22 09:19:59;;;;;;;8.32;2.00;;;9.10;72.00;;;;;;6154035;23;20028;-84
2021/04/22 09:23:12;;;;;;;12.30;2.30;;;9.10;70.50;;;;;;6151046;23;20024;-84
2021/04/22 09:25:40;;;;;;;10.43;2.13;;;9.10;69.60;;;;;;6150838;23;20013;-87
2021/04/22 09:28:35;;;;;;;9.95;2.15;;;9.20;70.20;;;;;;6154603;23;20316;-83
2021/04/22 09:31:01;;;;;;;10.32;2.03;;;9.20;72.20;;;;;;6172621;23;20025;-86
2021/04/22 09:33:29;;;;;;;8.57;2.10;;;9.20;72.00;;;;;;6183628;23;20021;-83
2021/04/22 09:36:06;;;;;;;8.88;2.20;;;9.20;71.40;;;;;;6185465;23;20066;-87
2021/04/22 09:38:34;;;;;;;8.20;2.13;;;9.30;71.00;;;;;;6186063;23;20018;-85
2021/04/22 09:41:11;;;;;;;9.45;2.05;;;9.30;71.30;;;;;;6184495;23;20032;-86
2021/04/22 09:43:38;;;;;;;9.60;2.35;;;9.30;71.20;;;;;;6177317;23;20021;-88
2021/04/22 09:46:04;;;;;;;10.70;2.85;;;9.30;71.10;;;;;;6184488;23;20017;-89
2021/04/22 09:48:32;;;;;;;14.30;2.75;;;9.40;71.40;;;;;;6179779;23;20024;-91
2021/04/22 09:51:02;;;;;;;11.90;2.60;;;9.40;71.90;;;;;;6185059;23;20385;-89
2021/04/22 09:53:28;;;;;;;9.93;2.20;;;9.40;72.40;;;;;;6184036;23;20935;-87
2021/04/22 09:55:58;;;;;;;9.88;2.05;;;9.30;72.40;;;;;;6185235;23;20044;-88
2021/04/22 09:58:28;;;;;;;9.30;2.15;;;9.30;72.50;;;;;;6184245;23;20077;-88
2021/04/22 10:00:55;;;;;;;10.43;2.20;;;9.30;71.50;;;;;;6184943;23;20017;-88
2021/04/22 10:03:22;;;;;;;17.92;2.60;;;9.30;71.80;;;;;;6184180;23;20341;-85
2021/04/22 10:05:58;;;;;;;13.43;2.35;;;9.30;72.30;;;;;;6185610;23;20017;-91
2021/04/22 10:08:24;;;;;;;10.50;2.35;;;9.30;72.10;;;;;;6184477;23;20017;-89
2021/04/22 10:11:03;;;;;;;10.00;2.47;;;9.40;72.60;;;;;;6185857;23;20468;-89
2021/04/22 10:13:41;;;;;;;7.28;2.22;;;9.50;71.90;;;;;;6184956;23;20052;-87
2021/04/22 10:16:07;;;;;;;10.75;2.42;;;9.50;72.80;;;;;;6184373;23;20338;-88
2021/04/22 10:18:44;;;;;;;11.50;2.30;;;9.60;72.90;;;;;;6185663;23;20016;-92
2021/04/22 10:21:11;;;;;;;10.05;1.95;;;9.60;72.40;;;;;;6185492;23;20082;-90
2021/04/22 10:23:37;;;;;;;9.65;2.20;;;9.70;72.10;;;;;;6185092;23;20185;-89
2021/04/22 10:26:21;;;;;;;12.02;2.38;;;9.80;71.50;;;;;;6180729;23;20014;-88
2021/04/22 10:28:50;;;;;;;10.05;1.83;;;9.90;70.60;;;;;;6154438;23;20020;-86
2021/04/22 10:31:25;;;;;;;8.80;1.98;;;9.90;69.90;;;;;;6154456;23;20093;-85
2021/04/22 10:33:54;;;;;;;13.82;2.40;;;9.90;69.00;;;;;;6150646;23;20362;-85
2021/04/22 10:36:21;;;;;;;9.52;1.83;;;9.90;69.40;;;;;;6152020;23;20021;-89
2021/04/22 10:38:51;;;;;;;9.07;2.15;;;9.90;69.20;;;;;;6150649;23;20013;-83
2021/04/22 10:41:19;;;;;;;10.10;2.13;;;9.90;70.20;;;;;;6155219;23;20040;-89
2021/04/22 10:43:46;;;;;;;12.52;2.33;;;10.00;68.90;;;;;;6154719;23;20512;-88
2021/04/22 10:46:13;;;;;;;9.07;2.20;;;10.00;68.70;;;;;;6155263;23;20014;-88
2021/04/22 10:48:41;;;;;;;13.25;2.30;;;10.00;70.00;;;;;;6155487;23;20021;-84
2021/04/22 10:51:08;;;;;;;9.38;2.30;;;10.00;69.50;;;;;;6154453;23;20016;-84
2021/04/22 10:53:41;;;;;;;11.15;2.45;;;10.00;70.00;;;;;;6151881;23;20450;-84
2021/04/22 10:56:10;;;;;;;9.55;2.50;;;10.10;69.70;;;;;;6150973;23;20105;-83
2021/04/22 10:58:43;;;;;;;14.23;2.63;;;10.10;70.00;;;;;;6155491;23;20028;-83
2021/04/22 11:01:10;;;;;;;13.93;2.70;;;10.10;69.10;;;;;;6148107;23;20013;-86
2021/04/22 11:03:39;;;;;;;12.60;2.30;;;10.10;68.80;;;;;;6155333;23;20096;-82
2021/04/22 11:06:13;;;;;;;10.82;2.25;;;10.10;68.40;;;;;;6156744;23;20020;-83
2021/04/22 11:08:54;;;;;;;9.13;2.40;;;10.10;69.10;;;;;;6156669;23;20081;-82
2021/04/22 11:11:24;;;;;;;9.18;1.98;;;10.20;70.00;;;;;;6155748;23;20021;-83
2021/04/22 11:14:11;;;;;;;9.68;2.25;;;10.20;68.90;;;;;;6156537;23;20028;-82
2021/04/22 11:16:52;;;;;;;9.88;2.10;;;10.20;69.80;;;;;;6156446;23;20040;-82
2021/04/22 11:19:40;;;;;;;10.18;2.33;;;10.30;70.80;;;;;;6154966;23;20028;-82
2021/04/22 11:22:38;;;;;;;13.80;2.50;;;10.30;70.20;;;;;;6156306;23;20089;-85
2021/04/22 11:25:21;;;;;;;11.63;2.15;;;10.40;69.70;;;;;;6155873;23;20018;-84
2021/04/22 11:27:53;;;;;;;11.82;2.55;;;10.40;69.40;;;;;;6155883;23;20465;-84
2021/04/22 11:30:31;;;;;;;13.52;2.30;;;10.50;69.60;;;;;;6155809;23;20048;-84
2021/04/22 11:32:59;;;;;;;14.10;2.53;;;10.60;68.50;;;;;;6152734;23;20017;-83
2021/04/22 11:35:27;;;;;;;11.00;2.30;;;10.60;67.60;;;;;;6151986;23;20097;-83
2021/04/22 11:38:06;;;;;;;11.60;2.33;;;10.60;67.30;;;;;;6155999;23;20013;-83
2021/04/22 11:40:36;;;;;;;12.00;2.45;;;10.60;67.60;;;;;;6155151;23;20017;-83
2021/04/22 11:43:04;;;;;;;11.98;2.00;;;10.60;66.60;;;;;;6156070;23;20450;-84
2021/04/22 11:45:33;;;;;;;11.55;2.30;;;10.60;66.50;;;;;;6155426;23;20350;-85
2021/04/22 11:48:16;;;;;;;12.75;2.72;;;10.60;66.80;;;;;;6154865;23;20013;-85
2021/04/22 11:50:48;;;;;;;9.77;2.08;;;10.70;65.50;;;;;;6155107;23;20022;-85
2021/04/22 11:53:15;;;;;;;8.10;2.13;;;10.70;66.40;;;;;;6154057;23;20021;-84
2021/04/22 11:55:56;;;;;;;11.52;2.42;;;10.80;67.10;;;;;;6156199;23;20382;-85
2021/04/22 11:58:24;;;;;;;14.82;2.35;;;10.90;66.80;;;;;;6152655;23;20096;-83
2021/04/22 12:00:56;;;;;;;11.90;2.25;;;10.90;66.40;;;;;;6154123;23;20025;-83
2021/04/22 12:03:28;;;;;;;13.90;2.63;;;10.90;65.10;;;;;;6154948;23;20021;-83
2021/04/22 12:05:57;;;;;;;12.10;2.47;;;10.90;67.10;;;;;;6155973;23;20013;-82
2021/04/22 12:08:41;;;;;;;11.77;2.40;;;10.90;67.80;;;;;;6153811;23;20338;-83
2021/04/22 12:11:13;;;;;;;12.25;2.35;;;10.90;67.40;;;;;;6155584;23;20040;-83
2021/04/22 12:13:39;;;;;;;11.17;2.27;;;10.90;67.30;;;;;;6155824;23;20029;-83
2021/04/22 12:16:07;;;;;;;10.55;2.30;;;10.90;67.90;;;;;;6154971;23;20040;-82
2021/04/22 12:18:36;;;;;;;11.75;2.20;;;10.90;68.40;;;;;;6155418;23;20017;-82
2021/04/22 12:21:08;;;;;;;13.57;2.67;;;10.90;67.90;;;;;;6154214;23;20319;-82
2021/04/22 12:23:35;;;;;;;12.30;2.45;;;11.00;68.70;;;;;;6155460;23;20454;-82
2021/04/22 12:26:16;;;;;;;12.35;2.53;;;11.00;68.90;;;;;;6155211;23;20021;-84
2021/04/22 12:28:53;;;;;;;10.40;2.22;;;11.10;66.00;;;;;;6154246;23;20076;-83
2021/04/22 12:31:27;;;;;;;10.48;2.30;;;11.10;66.60;;;;;;6155250;23;20343;-84
2021/04/22 12:33:56;;;;;;;13.23;2.20;;;11.10;66.70;;;;;;6152484;23;20466;-86
2021/04/22 12:36:23;;;;;;;11.73;2.35;;;11.10;66.80;;;;;;6154218;23;20097;-85
2021/04/22 12:38:48;;;;;;;13.70;2.38;;;11.20;66.60;;;;;;6155726;23;20061;-85
2021/04/22 12:41:16;;;;;;;13.30;2.38;;;11.20;65.00;;;;;;6155482;23;20018;-85
2021/04/22 12:43:46;;;;;;;13.13;2.47;;;11.20;65.20;;;;;;6154920;23;20018;-85
2021/04/22 12:46:14;;;;;;;8.40;2.25;;;11.20;65.30;;;;;;6155854;23;20013;-84
2021/04/22 12:48:45;;;;;;;9.13;2.17;;;11.20;65.90;;;;;;6155922;23;20350;-84
2021/04/22 12:51:14;;;;;;;10.95;2.35;;;11.20;66.30;;;;;;6152648;23;20509;-83
2021/04/22 12:53:47;;;;;;;12.63;2.40;;;11.20;66.80;;;;;;6151536;23;20596;-83
2021/04/22 12:56:15;;;;;;;8.77;2.00;;;11.20;65.90;;;;;;6150778;23;20121;-85
2021/04/22 12:58:45;;;;;;;7.95;2.00;;;11.20;65.20;;;;;;6151325;23;20289;-81
2021/04/22 13:01:20;;;;;;;12.32;2.60;;;11.20;64.20;;;;;;6147376;23;20125;-82
2021/04/22 13:03:51;;;;;;;10.93;2.42;;;11.20;65.60;;;;;;6150937;23;20029;-85
2021/04/22 13:06:19;;;;;;;9.18;2.17;;;11.30;65.10;;;;;;6155129;23;20045;-83
2021/04/22 13:08:58;;;;;;;10.40;2.08;;;11.30;65.70;;;;;;6155795;23;20022;-84
2021/04/22 13:11:29;;;;;;;8.38;2.20;;;11.40;65.10;;;;;;6154543;23;20064;-85
2021/04/22 13:14:12;;;;;;;10.27;2.30;;;11.40;63.60;;;;;;6148744;23;20074;-86
2021/04/22 13:16:45;;;;;;;10.90;2.50;;;11.50;64.80;;;;;;6155869;23;20021;-86
2021/04/22 13:19:18;;;;;;;8.65;2.20;;;11.50;64.70;;;;;;6154411;23;20039;-85
2021/04/22 13:21:51;;;;;;;10.50;2.67;;;11.50;64.40;;;;;;6151987;23;20018;-84
2021/04/22 13:24:19;;;;;;;11.02;2.47;;;11.60;66.40;;;;;;6154141;23;20021;-83
2021/04/22 13:27:04;;;;;;;9.57;2.28;;;11.70;66.30;;;;;;6154949;23;20020;-85
2021/04/22 13:29:32;;;;;;;9.65;2.10;;;11.60;66.10;;;;;;6155590;23;20028;-83
2021/04/22 13:32:08;;;;;;;8.23;2.28;;;11.70;65.60;;;;;;6153882;23;20013;-86